Time;durP1;ratioP1;P1;durP2;ratioP2;P2;SDS_P1;SDS_P2;PMS_P1;PMS_P2;Temp;Humidity;BMP_temperature;BMP_pressure;BME280_temperature;BME280_humidity;BME280_pressure;Samples;Min_cycle;Max_cycle;Signal;HPM_P1;HPM_P2
2022/03/31 00:00:33;;;;;;;13.80;4.18;;;;;;;5.23;66.91;99902.78;5067091;28;20664;-70
2022/03/31 00:03:01;;;;;;;9.27;3.95;;;;;;;5.27;67.20;99899.13;5068588;28;20461;-70
2022/03/31 00:05:29;;;;;;;11.07;4.28;;;;;;;5.43;66.14;99897.56;5067135;28;20109;-70
2022/03/31 00:07:57;;;;;;;12.43;4.30;;;;;;;5.45;64.59;99893.13;5068003;28;20048;-70
2022/03/31 00:10:26;;;;;;;9.40;4.35;;;;;;;5.34;64.78;99887.56;5066643;28;20036;-70
2022/03/31 00:12:54;;;;;;;7.30;3.60;;;;;;;5.40;63.44;99885.53;5067274;28;20049;-70
2022/03/31 00:15:21;;;;;;;9.30;3.90;;;;;;;5.33;64.11;99894.50;5067031;28;20132;-70
2022/03/31 00:17:47;;;;;;;9.57;4.10;;;;;;;5.22;63.92;99886.31;5067251;28;20132;-70
2022/03/31 00:20:14;;;;;;;9.10;4.60;;;;;;;4.84;64.84;99890.53;5067135;28;20072;-71
2022/03/31 00:22:42;;;;;;;9.52;4.45;;;;;;;5.02;65.33;99888.94;5067638;28;20075;-70
2022/03/31 00:25:10;;;;;;;8.07;4.20;;;;;;;4.83;65.14;99894.06;5068060;28;20073;-70
2022/03/31 00:27:37;;;;;;;11.88;4.63;;;;;;;4.93;64.73;99891.94;5067530;28;20049;-70
2022/03/31 00:30:05;;;;;;;10.55;4.40;;;;;;;4.78;64.95;99898.59;5068446;28;20209;-70
2022/03/31 00:32:33;;;;;;;7.43;3.92;;;;;;;4.58;65.65;99895.97;5072064;28;20443;-70
2022/03/31 00:34:59;;;;;;;10.13;3.90;;;;;;;4.62;66.56;99900.13;5071882;28;20052;-70
2022/03/31 00:37:27;;;;;;;7.10;3.63;;;;;;;4.47;65.37;99895.59;5070319;28;20117;-70
2022/03/31 00:39:55;;;;;;;8.70;4.28;;;;;;;4.49;64.85;99896.34;5070123;28;20044;-70
2022/03/31 00:42:22;;;;;;;10.77;3.95;;;;;;;4.31;65.25;99894.50;5071227;28;20189;-70
2022/03/31 00:44:48;;;;;;;10.35;4.50;;;;;;;4.11;65.96;99886.63;5063441;28;20040;-70
2022/03/31 00:47:15;;;;;;;8.25;4.18;;;;;;;4.08;66.15;99890.19;5071678;28;20040;-70
2022/03/31 00:49:42;;;;;;;12.07;4.22;;;;;;;3.83;66.67;99890.28;5069950;28;20120;-70
2022/03/31 00:52:09;;;;;;;11.50;4.40;;;;;;;3.97;67.09;99892.34;5070088;28;20040;-70
2022/03/31 00:54:36;;;;;;;11.57;4.60;;;;;;;3.98;66.41;99890.63;5069743;28;20064;-70
2022/03/31 00:57:06;;;;;;;8.65;4.22;;;;;;;3.97;64.83;99883.72;5070392;28;20037;-70
2022/03/31 00:59:32;;;;;;;9.18;3.95;;;;;;;4.06;66.08;99886.84;5067799;28;20044;-70
2022/03/31 01:01:59;;;;;;;7.93;3.83;;;;;;;4.06;65.45;99889.44;5067181;28;20044;-70
2022/03/31 01:04:28;;;;;;;9.10;3.28;;;;;;;3.98;65.51;99888.88;5069868;28;20050;-70
2022/03/31 01:06:54;;;;;;;9.57;4.25;;;;;;;4.17;65.83;99882.06;5069998;28;20045;-70
2022/03/31 01:09:21;;;;;;;12.00;4.20;;;;;;;4.18;66.48;99890.66;5069334;28;20500;-70
2022/03/31 01:11:47;;;;;;;7.88;3.50;;;;;;;3.95;65.77;99878.63;5069116;28;20122;-70
2022/03/31 01:14:15;;;;;;;8.07;3.95;;;;;;;3.82;67.37;99886.00;5070772;28;20097;-70
2022/03/31 01:16:42;;;;;;;10.30;4.20;;;;;;;3.84;66.86;99881.59;5070457;28;20066;-70
2022/03/31 01:19:10;;;;;;;12.68;4.07;;;;;;;3.76;66.92;99880.22;5069974;28;20044;-70
2022/03/31 01:21:38;;;;;;;7.72;4.00;;;;;;;3.65;69.69;99883.22;5069033;28;20393;-70
2022/03/31 01:24:09;;;;;;;7.88;4.30;;;;;;;3.96;69.48;99888.06;5066622;28;20045;-70
2022/03/31 01:26:35;;;;;;;12.82;3.83;;;;;;;4.17;67.49;99881.22;5054758;28;20052;-70
2022/03/31 01:29:02;;;;;;;10.52;3.90;;;;;;;4.34;66.01;99884.84;5068952;28;20052;-70
2022/03/31 01:31:29;;;;;;;7.95;3.95;;;;;;;4.20;66.33;99875.91;5070048;28;20037;-70
2022/03/31 01:33:55;;;;;;;8.23;3.85;;;;;;;4.14;66.62;99876.16;5070551;28;20488;-70
2022/03/31 01:36:22;;;;;;;9.23;4.30;;;;;;;4.19;67.22;99874.22;5070429;28;20439;-70
2022/03/31 01:38:48;;;;;;;9.50;4.00;;;;;;;4.07;68.32;99872.94;5070131;28;20052;-70
2022/03/31 01:41:16;;;;;;;8.63;4.65;;;;;;;4.25;68.23;99868.78;5070150;28;20098;-70
2022/03/31 01:43:42;;;;;;;10.48;4.55;;;;;;;4.27;68.07;99872.16;5070892;28;20044;-70
2022/03/31 01:46:09;;;;;;;9.35;4.22;;;;;;;4.25;68.34;99868.78;5070269;28;20037;-71
2022/03/31 01:48:36;;;;;;;12.15;4.35;;;;;;;4.13;68.89;99869.28;5070691;28;20052;-70
2022/03/31 01:51:04;;;;;;;7.25;4.30;;;;;;;4.27;67.96;99867.81;5069497;28;20084;-70
2022/03/31 01:53:30;;;;;;;12.43;4.00;;;;;;;3.95;69.19;99870.84;5070122;28;20124;-70
2022/03/31 01:55:57;;;;;;;11.43;3.72;;;;;;;4.06;69.42;99865.22;5070463;28;20079;-71
2022/03/31 01:58:25;;;;;;;6.65;4.03;;;;;;;4.01;69.26;99859.38;5070080;28;20044;-70
2022/03/31 02:00:51;;;;;;;11.93;4.88;;;;;;;4.11;69.30;99858.09;5069701;28;20048;-70
2022/03/31 02:03:18;;;;;;;12.27;4.15;;;;;;;4.04;69.51;99861.84;5069867;28;20049;-70
2022/03/31 02:05:44;;;;;;;8.68;4.20;;;;;;;4.25;68.23;99861.00;5070002;28;20041;-70
2022/03/31 02:08:10;;;;;;;6.30;4.00;;;;;;;4.08;69.16;99860.81;5070821;28;20041;-70
2022/03/31 02:10:37;;;;;;;10.73;4.57;;;;;;;4.17;68.76;99852.69;5068391;28;20098;-70
2022/03/31 02:13:03;;;;;;;13.95;4.30;;;;;;;4.02;69.98;99859.31;5069828;28;20040;-70
2022/03/31 02:15:31;;;;;;;9.43;4.88;;;;;;;3.79;70.57;99847.22;5069457;28;20428;-70
2022/03/31 02:17:57;;;;;;;9.93;4.40;;;;;;;3.55;71.80;99850.72;5069652;28;20040;-70
2022/03/31 02:20:24;;;;;;;9.50;3.85;;;;;;;3.48;72.16;99853.59;5073287;28;20521;-70
2022/03/31 02:22:51;;;;;;;12.88;4.95;;;;;;;3.21;72.97;99851.13;5069865;28;20052;-70
2022/03/31 02:25:17;;;;;;;8.65;4.32;;;;;;;3.40;72.17;99848.69;5069525;28;20121;-70
2022/03/31 02:27:44;;;;;;;9.68;4.72;;;;;;;3.52;70.87;99853.44;5070141;28;20114;-70
2022/03/31 02:30:11;;;;;;;10.43;5.30;;;;;;;3.19;72.27;99849.47;5068807;28;20094;-70
2022/03/31 02:32:38;;;;;;;20.25;4.55;;;;;;;3.73;70.10;99850.03;5068813;28;20037;-70
2022/03/31 02:35:06;;;;;;;8.70;4.20;;;;;;;3.62;69.84;99848.78;5068969;28;20451;-70
2022/03/31 02:37:32;;;;;;;8.05;4.35;;;;;;;3.69;69.52;99850.22;5068664;28;20487;-70
2022/03/31 02:39:59;;;;;;;12.38;4.65;;;;;;;3.74;69.05;99850.88;5068231;28;20401;-70
2022/03/31 02:42:25;;;;;;;9.88;4.78;;;;;;;3.65;69.40;99849.50;5067931;28;20086;-70
2022/03/31 02:44:51;;;;;;;8.05;4.30;;;;;;;4.05;67.65;99842.78;5067685;28;20072;-70
2022/03/31 02:47:18;;;;;;;11.30;4.03;;;;;;;3.50;69.60;99849.22;5065893;28;20674;-70
2022/03/31 02:49:45;;;;;;;6.63;3.92;;;;;;;3.48;69.32;99841.50;5064021;28;20053;-70
2022/03/31 02:52:12;;;;;;;8.73;4.63;;;;;;;3.48;69.06;99844.09;5060796;28;20101;-70
2022/03/31 02:57:22;;;;;;;9.68;4.63;;;;;;;3.63;67.73;99848.69;5049067;28;20044;-70
2022/03/31 02:59:49;;;;;;;10.30;4.70;;;;;;;3.55;68.16;99842.13;5064240;28;20091;-70
2022/03/31 03:02:15;;;;;;;11.70;4.30;;;;;;;3.53;67.74;99841.34;5056282;28;20045;-70
2022/03/31 03:04:41;;;;;;;9.02;5.10;;;;;;;3.30;68.59;99840.44;5065685;28;20045;-70
2022/03/31 03:07:09;;;;;;;9.13;5.20;;;;;;;2.80;70.13;99842.22;5068954;28;20541;-70
2022/03/31 03:09:36;;;;;;;9.95;5.60;;;;;;;2.54;70.87;99841.41;5067186;28;20118;-70
2022/03/31 03:12:03;;;;;;;5.38;3.17;;;;;;;2.88;69.15;99841.97;5067377;28;20055;-70
2022/03/31 03:14:30;;;;;;;8.63;3.45;;;;;;;2.65;69.85;99839.31;5067883;28;20036;-70
2022/03/31 03:16:56;;;;;;;13.88;6.05;;;;;;;2.96;68.69;99837.34;5067693;28;20090;-70
2022/03/31 03:19:22;;;;;;;9.45;5.93;;;;;;;3.16;67.37;99837.50;5067632;28;20049;-70
2022/03/31 03:21:49;;;;;;;8.10;4.72;;;;;;;3.09;67.20;99845.53;5060172;28;20106;-70
2022/03/31 03:24:16;;;;;;;10.27;5.00;;;;;;;3.35;66.65;99840.28;5050096;28;20044;-70
2022/03/31 03:26:43;;;;;;;9.48;4.90;;;;;;;3.22;66.94;99844.19;5063163;28;20079;-70
2022/03/31 03:29:09;;;;;;;13.05;5.53;;;;;;;3.33;65.99;99847.22;5065462;28;20056;-70
2022/03/31 03:31:36;;;;;;;12.18;6.10;;;;;;;3.39;65.40;99840.09;5067162;28;20059;-70
2022/03/31 03:34:02;;;;;;;11.90;5.78;;;;;;;3.11;66.44;99843.72;5068096;28;20051;-70
2022/03/31 03:36:29;;;;;;;11.50;5.78;;;;;;;3.11;66.48;99846.31;5067847;28;20664;-70
2022/03/31 03:38:55;;;;;;;12.57;6.32;;;;;;;2.91;66.56;99842.72;5067663;28;20052;-70
2022/03/31 03:41:23;;;;;;;17.95;6.53;;;;;;;2.89;66.66;99848.81;5066873;28;20045;-70
2022/03/31 03:43:50;;;;;;;15.52;6.38;;;;;;;2.57;67.73;99849.91;5068542;28;20049;-70
2022/03/31 03:46:16;;;;;;;10.50;5.53;;;;;;;3.19;66.00;99831.34;5062439;28;20041;-70
2022/03/31 03:48:42;;;;;;;12.98;7.10;;;;;;;3.13;65.92;99841.94;5068205;28;20052;-70
2022/03/31 03:51:10;;;;;;;17.27;6.05;;;;;;;3.52;64.40;99837.03;5067129;28;20117;-70
2022/03/31 03:53:36;;;;;;;14.57;6.25;;;;;;;3.61;64.11;99837.56;5068363;28;20489;-70
2022/03/31 03:56:03;;;;;;;14.73;6.65;;;;;;;3.63;63.94;99838.34;5066562;28;20068;-70
2022/03/31 03:58:31;;;;;;;12.80;7.53;;;;;;;3.72;63.51;99839.75;5066399;28;20044;-71
2022/03/31 04:00:57;;;;;;;12.77;6.20;;;;;;;3.50;64.00;99842.31;5066479;28;20041;-71
2022/03/31 04:03:23;;;;;;;11.40;6.43;;;;;;;3.59;64.06;99844.53;5066611;28;20064;-71
2022/03/31 04:05:50;;;;;;;13.07;6.80;;;;;;;3.55;63.72;99842.94;5070347;28;20045;-70
2022/03/31 04:08:17;;;;;;;12.73;6.30;;;;;;;3.43;64.06;99841.69;5072036;28;20119;-70
2022/03/31 04:10:44;;;;;;;15.95;6.18;;;;;;;3.37;64.45;99849.66;5070453;28;20542;-70
2022/03/31 04:13:11;;;;;;;9.93;5.97;;;;;;;3.37;64.03;99841.03;5071664;28;20094;-70
2022/03/31 04:15:39;;;;;;;13.15;6.30;;;;;;;3.37;63.97;99846.22;5071165;28;20093;-70
2022/03/31 04:18:07;;;;;;;14.63;6.53;;;;;;;3.37;63.92;99835.88;5071679;28;20558;-70
2022/03/31 04:20:34;;;;;;;19.15;7.47;;;;;;;3.45;63.51;99854.56;5060940;28;20041;-71
2022/03/31 04:23:01;;;;;;;13.98;6.75;;;;;;;3.34;63.77;99844.59;5051603;28;20049;-71
2022/03/31 04:25:27;;;;;;;14.07;6.53;;;;;;;3.33;63.51;99848.09;5059933;28;20052;-71
2022/03/31 04:27:54;;;;;;;15.73;7.00;;;;;;;3.21;63.84;99834.75;5068404;28;20095;-71
2022/03/31 04:30:21;;;;;;;11.68;6.60;;;;;;;3.04;64.32;99850.03;5064619;28;20633;-71
2022/03/31 04:32:49;;;;;;;15.85;6.50;;;;;;;2.97;64.49;99858.91;5069198;28;20128;-71
2022/03/31 04:35:16;;;;;;;16.55;7.63;;;;;;;3.00;64.14;99840.66;5071201;28;20048;-71
2022/03/31 04:37:42;;;;;;;16.00;8.15;;;;;;;2.86;64.82;99847.19;5070605;28;20052;-71
2022/03/31 04:40:10;;;;;;;18.92;8.02;;;;;;;2.88;64.58;99844.56;5067047;28;20040;-71
2022/03/31 04:42:37;;;;;;;13.35;6.70;;;;;;;2.97;64.44;99849.41;5070984;28;20126;-71
2022/03/31 04:45:05;;;;;;;13.23;7.18;;;;;;;2.66;65.22;99849.59;5069950;28;20412;-71
2022/03/31 04:47:31;;;;;;;15.20;7.10;;;;;;;2.59;65.34;99853.28;5070902;28;20048;-71
2022/03/31 04:49:59;;;;;;;14.10;7.57;;;;;;;2.64;65.18;99854.00;5069382;28;20041;-71
2022/03/31 04:52:26;;;;;;;13.95;7.72;;;;;;;2.45;65.59;99853.75;5071179;28;20048;-70
2022/03/31 04:54:52;;;;;;;14.77;7.55;;;;;;;2.30;65.84;99853.38;5069550;28;20048;-70
2022/03/31 04:57:20;;;;;;;13.60;7.35;;;;;;;2.49;65.10;99848.47;5070474;28;20049;-70
2022/03/31 04:59:46;;;;;;;16.45;8.13;;;;;;;2.44;65.15;99858.97;5068112;28;21600;-70
2022/03/31 05:02:13;;;;;;;13.40;7.53;;;;;;;2.34;65.28;99863.59;5071085;28;20493;-70
2022/03/31 05:04:40;;;;;;;13.57;7.45;;;;;;;2.43;65.13;99859.88;5065360;28;20052;-71
2022/03/31 05:07:08;;;;;;;12.63;6.18;;;;;;;2.14;65.89;99857.38;5070560;28;20102;-70
2022/03/31 05:09:34;;;;;;;13.80;6.90;;;;;;;2.35;65.42;99852.38;5069474;28;20067;-70
2022/03/31 05:12:01;;;;;;;16.25;7.07;;;;;;;2.77;64.26;99859.63;5053243;28;20052;-70
2022/03/31 05:14:27;;;;;;;11.57;6.60;;;;;;;2.61;64.58;99859.28;5067599;28;20515;-70
2022/03/31 05:16:54;;;;;;;15.75;7.78;;;;;;;2.54;64.69;99862.97;5068861;28;20045;-70
2022/03/31 05:19:20;;;;;;;13.38;7.30;;;;;;;2.85;64.03;99866.19;5069055;28;20052;-70
2022/03/31 05:21:47;;;;;;;14.30;7.82;;;;;;;2.96;63.45;99863.25;5070270;28;20052;-70
2022/03/31 05:24:15;;;;;;;14.80;7.25;;;;;;;2.85;63.68;99862.75;5071483;28;20428;-69
2022/03/31 05:26:42;;;;;;;13.32;8.15;;;;;;;2.79;64.00;99863.81;5060535;28;20045;-70
2022/03/31 05:29:08;;;;;;;12.70;6.28;;;;;;;2.81;63.97;99869.78;5067190;28;20397;-70
2022/03/31 05:31:35;;;;;;;12.77;6.78;;;;;;;2.73;63.94;99856.28;5069405;28;20044;-72
2022/03/31 05:34:01;;;;;;;12.70;6.40;;;;;;;2.97;63.49;99844.22;5069764;28;20052;-72
2022/03/31 05:36:28;;;;;;;11.93;6.45;;;;;;;3.08;62.96;99849.88;5070336;28;20072;-71
2022/03/31 05:38:56;;;;;;;14.13;6.00;;;;;;;2.73;63.60;99848.53;5070072;28;20060;-72
2022/03/31 05:41:24;;;;;;;13.02;6.50;;;;;;;2.45;64.50;99843.41;5070704;28;20162;-72
2022/03/31 05:43:50;;;;;;;12.38;6.90;;;;;;;2.56;64.73;99853.38;5070829;28;20110;-72
2022/03/31 05:46:16;;;;;;;13.80;6.22;;;;;;;2.60;64.72;99856.72;5070478;28;20072;-71
2022/03/31 05:48:43;;;;;;;13.98;6.88;;;;;;;3.01;63.33;99863.09;5070380;28;20105;-72
2022/03/31 05:51:10;;;;;;;15.95;6.57;;;;;;;3.23;62.15;99861.44;5070396;28;20110;-72
2022/03/31 05:53:36;;;;;;;12.13;6.70;;;;;;;3.18;62.41;99853.00;5070380;28;20504;-71
2022/03/31 05:56:02;;;;;;;13.93;6.68;;;;;;;3.31;62.01;99860.25;5069688;28;20479;-71
2022/03/31 05:58:30;;;;;;;13.50;6.93;;;;;;;3.39;61.31;99857.41;5070530;28;20652;-71
2022/03/31 06:00:57;;;;;;;10.40;6.35;;;;;;;3.48;61.21;99854.44;5069016;28;20498;-71
2022/03/31 06:03:23;;;;;;;11.35;7.05;;;;;;;3.22;62.18;99858.00;5070264;28;20044;-71
2022/03/31 06:05:50;;;;;;;17.17;6.53;;;;;;;3.13;62.37;99863.50;5070154;28;20041;-72
2022/03/31 06:08:17;;;;;;;10.90;6.70;;;;;;;3.07;66.62;99863.72;5070653;28;20040;-72
2022/03/31 06:10:43;;;;;;;12.73;6.78;;;;;;;3.20;64.01;99864.13;5068949;28;20048;-71
2022/03/31 06:13:10;;;;;;;14.57;6.85;;;;;;;3.42;62.11;99858.13;5070189;28;20132;-71
2022/03/31 06:15:37;;;;;;;12.70;6.63;;;;;;;3.56;61.43;99865.38;5069476;28;20698;-71
2022/03/31 06:18:06;;;;;;;12.82;7.07;;;;;;;3.67;60.54;99860.66;5069518;28;20554;-71
2022/03/31 06:20:34;;;;;;;11.57;6.00;;;;;;;3.75;60.26;99869.00;5069025;28;20041;-71
2022/03/31 06:23:00;;;;;;;21.73;6.70;;;;;;;3.32;61.50;99863.69;5069828;28;20536;-71
2022/03/31 06:25:27;;;;;;;13.23;5.97;;;;;;;3.44;60.87;99866.69;5069960;28;20080;-71
2022/03/31 06:27:54;;;;;;;14.82;6.00;;;;;;;3.44;61.27;99871.84;5067359;28;20044;-71
2022/03/31 06:30:21;;;;;;;11.32;6.05;;;;;;;3.84;60.47;99867.81;5067614;28;20041;-71
2022/03/31 06:32:48;;;;;;;7.10;4.30;;;;;;;3.83;59.09;99872.16;5069592;28;20101;-71
2022/03/31 06:35:15;;;;;;;11.80;5.65;;;;;;;4.30;58.61;99870.28;5069675;28;20045;-71
2022/03/31 06:37:43;;;;;;;12.35;5.97;;;;;;;4.74;56.86;99868.47;5068810;28;20048;-71
2022/03/31 06:40:12;;;;;;;9.52;5.47;;;;;;;4.65;57.00;99873.22;5068127;28;20044;-71
2022/03/31 06:42:39;;;;;;;10.75;5.55;;;;;;;4.78;57.20;99880.41;5059550;28;20125;-71
2022/03/31 06:45:08;;;;;;;10.77;5.35;;;;;;;4.73;56.24;99874.56;5069055;28;20045;-72
2022/03/31 06:47:35;;;;;;;13.18;6.20;;;;;;;4.50;56.79;99882.47;5069410;28;20131;-71
2022/03/31 06:50:03;;;;;;;9.73;5.47;;;;;;;4.65;56.26;99871.47;5068777;28;20048;-71
2022/03/31 06:52:30;;;;;;;8.23;4.60;;;;;;;4.53;56.04;99873.72;5068714;28;20135;-71
2022/03/31 06:54:56;;;;;;;11.80;6.13;;;;;;;4.32;57.34;99875.44;5069085;28;20052;-70
2022/03/31 06:57:23;;;;;;;20.17;5.25;;;;;;;4.25;57.38;99868.78;5067206;28;20052;-69
2022/03/31 06:59:50;;;;;;;10.82;5.65;;;;;;;3.90;58.34;99877.94;5068534;28;20059;-69
2022/03/31 07:02:16;;;;;;;11.88;5.68;;;;;;;3.38;59.83;99873.84;5069413;28;20094;-69
2022/03/31 07:04:43;;;;;;;12.02;5.47;;;;;;;3.73;59.60;99875.97;5068485;28;20044;-69
2022/03/31 07:07:10;;;;;;;16.05;5.38;;;;;;;3.90;58.94;99877.94;5067802;28;20089;-69
2022/03/31 07:09:37;;;;;;;14.00;6.20;;;;;;;4.22;58.56;99879.28;5067812;28;20048;-69
2022/03/31 07:12:04;;;;;;;13.25;6.00;;;;;;;4.46;56.65;99872.28;5068447;28;20052;-69
2022/03/31 07:14:33;;;;;;;11.00;5.80;;;;;;;4.93;56.19;99870.28;5067992;28;20554;-69
2022/03/31 07:16:59;;;;;;;22.08;5.45;;;;;;;5.05;56.37;99867.19;5068626;28;20481;-69
2022/03/31 07:19:26;;;;;;;14.13;5.65;;;;;;;4.33;57.37;99866.72;5068004;28;20049;-69
2022/03/31 07:21:52;;;;;;;16.90;4.75;;;;;;;4.71;56.67;99873.81;5068749;28;20048;-69
2022/03/31 07:24:20;;;;;;;15.25;6.10;;;;;;;5.27;55.63;99866.19;5068062;28;20045;-70
2022/03/31 07:26:47;;;;;;;14.65;5.22;;;;;;;5.77;53.11;99858.72;5068982;28;20045;-70
2022/03/31 07:29:13;;;;;;;20.33;6.35;;;;;;;6.04;53.36;99856.63;5068189;28;20516;-70
2022/03/31 07:31:39;;;;;;;12.57;6.03;;;;;;;6.43;52.63;99866.88;5068493;28;20056;-70
2022/03/31 07:34:06;;;;;;;10.20;5.65;;;;;;;6.51;52.07;99866.50;5068256;28;20129;-70
2022/03/31 07:36:32;;;;;;;9.38;5.05;;;;;;;6.47;50.73;99863.19;5068508;28;20037;-70
2022/03/31 07:38:58;;;;;;;11.50;5.85;;;;;;;6.55;51.19;99861.06;5066026;28;20083;-70
2022/03/31 07:41:26;;;;;;;23.42;6.28;;;;;;;6.34;51.10;99865.56;5067754;28;20067;-70
2022/03/31 07:43:52;;;;;;;11.35;5.05;;;;;;;6.43;50.82;99864.25;5067620;28;20098;-70
2022/03/31 07:46:19;;;;;;;9.52;5.30;;;;;;;6.26;51.34;99872.06;5067912;28;20097;-70
2022/03/31 07:48:45;;;;;;;16.70;5.65;;;;;;;6.87;50.42;99866.47;5068576;28;20056;-70
2022/03/31 07:51:11;;;;;;;10.98;5.85;;;;;;;7.55;51.05;99870.72;5068130;28;20048;-70
2022/03/31 07:53:38;;;;;;;10.80;5.40;;;;;;;7.63;48.54;99868.53;5067762;28;20060;-69
2022/03/31 07:56:05;;;;;;;12.02;5.15;;;;;;;7.97;47.71;99863.19;5067415;28;20041;-70
2022/03/31 07:58:33;;;;;;;9.38;4.53;;;;;;;7.07;48.73;99863.66;5066961;28;20044;-70
2022/03/31 08:01:00;;;;;;;11.48;5.47;;;;;;;7.52;50.16;99868.25;5067740;28;20052;-70
2022/03/31 08:03:27;;;;;;;10.43;5.47;;;;;;;7.98;47.53;99864.03;5068345;28;20108;-71
2022/03/31 08:05:54;;;;;;;8.95;5.15;;;;;;;7.68;48.81;99858.72;5067690;28;20123;-70
2022/03/31 08:08:21;;;;;;;9.55;5.15;;;;;;;7.97;49.27;99864.94;5068413;28;20120;-70
2022/03/31 08:10:49;;;;;;;10.50;5.28;;;;;;;7.83;46.95;99858.69;5067972;28;20052;-70
2022/03/31 08:13:23;;;;;;;10.50;5.43;;;;;;;7.78;48.28;99852.06;5057126;28;20045;-70
2022/03/31 08:15:53;;;;;;;12.75;5.80;;;;;;;7.16;48.65;99856.25;5067340;28;20064;-70
2022/03/31 08:18:19;;;;;;;12.13;5.60;;;;;;;6.73;51.70;99862.75;5067973;28;20495;-70
2022/03/31 08:20:45;;;;;;;11.50;4.97;;;;;;;6.37;51.15;99864.56;5067919;28;20053;-70
2022/03/31 08:23:12;;;;;;;8.32;5.05;;;;;;;6.92;51.97;99867.91;5068049;28;20361;-70
2022/03/31 08:25:41;;;;;;;9.48;5.40;;;;;;;6.87;50.01;99863.84;5068503;28;20063;-69
2022/03/31 08:28:07;;;;;;;9.05;5.03;;;;;;;7.35;49.27;99853.53;5068334;28;20086;-69
2022/03/31 08:30:34;;;;;;;8.82;4.68;;;;;;;7.57;49.46;99861.06;5067655;28;20040;-69
2022/03/31 08:33:01;;;;;;;13.60;4.80;;;;;;;7.22;48.87;99855.91;5067761;28;20041;-69
2022/03/31 08:35:28;;;;;;;11.98;5.75;;;;;;;7.69;49.30;99861.22;5067858;28;20098;-69
2022/03/31 08:37:55;;;;;;;8.15;5.18;;;;;;;7.94;49.90;99862.50;5068081;28;20532;-69
2022/03/31 08:40:21;;;;;;;11.63;5.10;;;;;;;7.90;48.36;99853.16;5067452;28;20506;-69
2022/03/31 08:42:48;;;;;;;11.30;5.03;;;;;;;7.99;48.88;99852.66;5068386;28;20101;-69
2022/03/31 08:45:17;;;;;;;9.77;5.28;;;;;;;7.92;49.03;99862.59;5067773;28;20036;-70
2022/03/31 08:47:45;;;;;;;9.32;4.63;;;;;;;8.60;47.61;99864.00;5067860;28;20139;-70
2022/03/31 08:50:13;;;;;;;14.00;4.68;;;;;;;8.82;46.69;99860.97;5067589;28;20106;-70
2022/03/31 08:52:40;;;;;;;9.27;5.03;;;;;;;9.41;45.67;99843.50;5071237;28;20078;-71
2022/03/31 08:55:09;;;;;;;10.27;5.30;;;;;;;8.88;44.89;99854.53;5071806;28;20048;-70
2022/03/31 08:57:40;;;;;;;9.80;4.78;;;;;;;9.26;44.55;99846.09;5071632;28;20389;-70
2022/03/31 09:00:08;;;;;;;7.13;4.20;;;;;;;8.93;44.67;99853.34;5070511;28;20398;-70
2022/03/31 09:02:35;;;;;;;8.23;4.15;;;;;;;8.84;45.26;99850.41;5071676;28;20127;-70
2022/03/31 09:05:03;;;;;;;12.77;6.50;;;;;;;8.91;45.09;99854.34;5071102;28;20040;-70
2022/03/31 09:07:31;;;;;;;6.55;4.25;;;;;;;8.66;44.83;99847.94;5071340;28;20044;-70
2022/03/31 09:09:57;;;;;;;12.05;4.70;;;;;;;8.77;44.74;99861.25;5070853;28;20297;-70
2022/03/31 09:12:26;;;;;;;8.07;4.65;;;;;;;8.80;44.89;99857.59;5071382;28;20118;-70
2022/03/31 09:14:54;;;;;;;12.30;4.80;;;;;;;8.54;46.13;99853.88;5070318;28;20504;-70
2022/03/31 09:17:21;;;;;;;7.25;4.50;;;;;;;9.10;44.57;99847.94;5070883;28;20119;-70
2022/03/31 09:19:47;;;;;;;14.55;5.47;;;;;;;8.91;45.89;99847.34;5071255;28;20048;-70
2022/03/31 09:22:13;;;;;;;10.73;4.78;;;;;;;9.02;44.69;99849.31;5071412;28;20048;-71
2022/03/31 09:24:41;;;;;;;10.80;4.60;;;;;;;8.84;44.28;99858.25;5070143;28;20098;-70
2022/03/31 09:27:08;;;;;;;8.77;4.45;;;;;;;8.99;44.05;99863.44;5070908;28;20517;-70
2022/03/31 09:29:35;;;;;;;8.57;4.85;;;;;;;8.92;43.92;99856.03;5069421;28;20494;-66
2022/03/31 09:32:09;;;;;;;8.27;4.80;;;;;;;8.80;45.26;99863.66;5070895;28;20045;-66
2022/03/31 09:34:40;;;;;;;8.15;4.80;;;;;;;8.45;45.13;99870.09;5070568;28;20044;-66
2022/03/31 09:37:06;;;;;;;8.63;4.85;;;;;;;8.48;45.90;99871.69;5064640;28;20044;-66
2022/03/31 09:39:33;;;;;;;8.65;4.80;;;;;;;8.10;44.81;99866.78;5069855;28;20106;-66
2022/03/31 09:42:00;;;;;;;6.65;4.20;;;;;;;7.97;45.72;99860.59;5070873;28;20520;-66
2022/03/31 09:44:27;;;;;;;6.97;4.50;;;;;;;7.92;45.95;99864.34;5070838;28;20098;-66
2022/03/31 09:46:54;;;;;;;7.90;4.43;;;;;;;7.91;46.41;99855.69;5070097;28;20045;-66
2022/03/31 09:49:22;;;;;;;7.72;4.18;;;;;;;8.12;45.53;99856.28;5063581;28;20053;-66
2022/03/31 09:51:51;;;;;;;8.07;4.53;;;;;;;8.04;45.35;99861.06;5070754;28;20071;-66
2022/03/31 09:54:18;;;;;;;7.10;4.43;;;;;;;7.88;44.74;99861.06;5070270;28;20048;-66
2022/03/31 09:56:47;;;;;;;12.60;4.50;;;;;;;7.65;45.38;99859.69;5070775;28;20044;-66
2022/03/31 09:59:16;;;;;;;7.72;4.25;;;;;;;7.57;45.30;99851.47;5069225;28;20484;-66
2022/03/31 10:01:44;;;;;;;10.95;4.20;;;;;;;7.32;46.15;99851.03;5070340;28;20492;-66
2022/03/31 10:04:12;;;;;;;9.38;4.68;;;;;;;7.90;46.52;99853.16;5069853;28;20078;-66
2022/03/31 10:06:41;;;;;;;8.52;4.80;;;;;;;7.80;45.54;99850.19;5069951;28;20045;-66
2022/03/31 10:09:10;;;;;;;10.35;4.97;;;;;;;7.90;47.02;99853.16;5068874;28;20072;-66
2022/03/31 10:11:41;;;;;;;8.55;4.30;;;;;;;7.69;45.12;99850.78;5050192;28;20045;-66
2022/03/31 10:14:19;;;;;;;9.05;4.28;;;;;;;7.62;46.82;99839.00;5051783;28;20045;-66
2022/03/31 10:16:50;;;;;;;9.63;4.53;;;;;;;8.01;47.44;99848.19;5068792;28;20124;-66
2022/03/31 10:19:27;;;;;;;12.10;4.47;;;;;;;7.92;44.61;99856.53;5068972;28;20048;-66
2022/03/31 10:21:58;;;;;;;9.38;4.30;;;;;;;7.76;45.43;99844.31;5065094;28;20040;-66
2022/03/31 10:24:42;;;;;;;10.35;5.20;;;;;;;7.82;46.67;99844.00;5062801;28;20068;-66
2022/03/31 10:27:09;;;;;;;6.97;4.63;;;;;;;8.02;45.63;99852.50;5069917;28;20041;-66
2022/03/31 10:29:42;;;;;;;10.43;5.05;;;;;;;7.44;45.90;99845.19;5068893;28;20059;-66
2022/03/31 10:32:16;;;;;;;17.55;4.75;;;;;;;6.94;47.60;99841.78;5070015;28;20040;-65
2022/03/31 10:34:44;;;;;;;10.18;4.68;;;;;;;7.20;47.94;99842.13;5069542;28;20090;-66
2022/03/31 10:37:12;;;;;;;8.52;5.07;;;;;;;7.88;46.60;99836.72;5069536;28;20054;-66
2022/03/31 10:39:38;;;;;;;18.02;5.30;;;;;;;7.81;47.72;99837.06;5068629;28;20040;-66
2022/03/31 10:42:07;;;;;;;8.45;4.18;;;;;;;7.99;45.19;99829.16;5069475;28;20048;-66
2022/03/31 10:44:33;;;;;;;9.35;4.63;;;;;;;7.91;45.26;99826.97;5069641;28;20495;-66
2022/03/31 10:47:03;;;;;;;7.72;4.60;;;;;;;7.65;45.92;99832.78;5069569;28;20068;-66
2022/03/31 10:49:31;;;;;;;12.27;5.18;;;;;;;7.24;47.39;99824.56;5068964;28;20090;-66
2022/03/31 10:51:59;;;;;;;12.10;4.75;;;;;;;7.76;50.03;99841.69;5068975;28;20048;-66
2022/03/31 10:54:28;;;;;;;16.45;4.20;;;;;;;7.31;46.26;99818.94;5066125;28;20042;-66
2022/03/31 10:57:07;;;;;;;9.23;4.60;;;;;;;7.91;46.92;99820.94;5060914;28;20048;-67
2022/03/31 10:59:34;;;;;;;7.88;4.80;;;;;;;8.10;45.49;99819.78;5068564;28;20068;-66
2022/03/31 11:02:11;;;;;;;8.10;4.65;;;;;;;7.99;44.81;99809.13;5069417;28;20056;-66
2022/03/31 11:04:49;;;;;;;10.85;4.75;;;;;;;8.14;44.87;99821.31;5069103;28;20048;-66
2022/03/31 11:07:20;;;;;;;14.27;5.45;;;;;;;8.15;44.65;99809.94;5069176;28;20106;-66
2022/03/31 11:09:47;;;;;;;11.07;5.30;;;;;;;8.31;45.33;99804.75;5068499;28;20041;-66
2022/03/31 11:12:26;;;;;;;9.48;4.78;;;;;;;8.48;46.04;99806.38;5069241;28;20090;-72
2022/03/31 11:14:58;;;;;;;6.65;3.92;;;;;;;7.82;45.11;99810.06;5067791;28;20041;-66
2022/03/31 11:17:26;;;;;;;10.50;5.57;;;;;;;8.18;45.67;99811.53;5068527;28;20048;-66
2022/03/31 11:19:53;;;;;;;17.88;6.25;;;;;;;8.26;45.53;99804.97;5065613;28;20117;-66
2022/03/31 11:22:20;;;;;;;12.65;5.60;;;;;;;8.41;45.78;99798.03;5057989;28;20055;-66
2022/03/31 11:24:47;;;;;;;10.88;5.70;;;;;;;8.56;45.54;99791.09;5069058;28;20046;-66
2022/03/31 11:27:13;;;;;;;11.32;4.63;;;;;;;8.72;45.55;99784.84;5068511;28;20044;-66
2022/03/31 11:29:39;;;;;;;11.32;5.93;;;;;;;8.73;46.06;99790.94;5059547;28;20060;-66
2022/03/31 11:32:06;;;;;;;12.60;6.38;;;;;;;8.72;45.06;99782.25;5068476;28;20049;-66
2022/03/31 11:34:35;;;;;;;20.80;9.30;;;;;;;8.88;44.96;99776.09;5065358;28;20072;-66
2022/03/31 11:37:02;;;;;;;15.55;9.48;;;;;;;9.19;44.44;99778.56;5068641;28;20044;-66
2022/03/31 11:39:30;;;;;;;12.00;7.70;;;;;;;9.09;44.03;99772.22;5067503;28;20141;-66